sensor_id;sensor_type;location;lat;lon;timestamp;temperature;humidity
23083;DHT22;11709;52.420;10.538;2022-07-15T00:03:00;13.70;99.90
23083;DHT22;11709;52.420;10.538;2022-07-15T00:07:03;13.70;99.90
23083;DHT22;11709;52.420;10.538;2022-07-15T00:11:06;13.60;99.90
23083;DHT22;11709;52.420;10.538;2022-07-15T00:15:09;13.60;99.90
23083;DHT22;11709;52.420;10.538;2022-07-15T00:19:12;13.50;99.90
23083;DHT22;11709;52.420;10.538;2022-07-15T00:23:14;13.30;99.90
23083;DHT22;11709;52.420;10.538;2022-07-15T00:27:17;13.30;99.90
23083;DHT22;11709;52.420;10.538;2022-07-15T00:31:19;13.20;99.90
23083;DHT22;11709;52.420;10.538;2022-07-15T00:35:22;13.10;99.90
23083;DHT22;11709;52.420;10.538;2022-07-15T00:39:25;13.10;99.90
23083;DHT22;11709;52.420;10.538;2022-07-15T00:43:27;13.00;99.90
23083;DHT22;11709;52.420;10.538;2022-07-15T00:47:30;13.00;99.90
23083;DHT22;11709;52.420;10.538;2022-07-15T00:51:41;13.00;99.90
23083;DHT22;11709;52.420;10.538;2022-07-15T00:55:42;13.00;99.90
23083;DHT22;11709;52.420;10.538;2022-07-15T00:59:46;13.00;99.90
23083;DHT22;11709;52.420;10.538;2022-07-15T01:03:49;13.00;99.90
23083;DHT22;11709;52.420;10.538;2022-07-15T01:07:52;13.00;99.90
23083;DHT22;11709;52.420;10.538;2022-07-15T01:11:55;13.00;99.90
23083;DHT22;11709;52.420;10.538;2022-07-15T01:15:58;12.90;99.90
23083;DHT22;11709;52.420;10.538;2022-07-15T01:20:01;12.90;99.90
23083;DHT22;11709;52.420;10.538;2022-07-15T01:24:03;12.80;99.90
23083;DHT22;11709;52.420;10.538;2022-07-15T01:28:08;12.80;99.90
23083;DHT22;11709;52.420;10.538;2022-07-15T01:32:11;12.80;99.90
23083;DHT22;11709;52.420;10.538;2022-07-15T01:36:13;12.70;99.90
23083;DHT22;11709;52.420;10.538;2022-07-15T01:40:16;12.70;99.90
23083;DHT22;11709;52.420;10.538;2022-07-15T01:44:18;12.70;99.90
23083;DHT22;11709;52.420;10.538;2022-07-15T01:48:21;12.70;99.90
23083;DHT22;11709;52.420;10.538;2022-07-15T01:52:41;12.70;99.90
23083;DHT22;11709;52.420;10.538;2022-07-15T01:56:44;12.70;99.90
23083;DHT22;11709;52.420;10.538;2022-07-15T02:00:47;12.70;99.90
23083;DHT22;11709;52.420;10.538;2022-07-15T02:04:50;12.70;99.90
23083;DHT22;11709;52.420;10.538;2022-07-15T02:08:53;12.70;99.90
23083;DHT22;11709;52.420;10.538;2022-07-15T02:12:55;12.70;99.90
23083;DHT22;11709;52.420;10.538;2022-07-15T02:16:58;12.60;99.90
23083;DHT22;11709;52.420;10.538;2022-07-15T02:21:00;12.60;99.90
23083;DHT22;11709;52.420;10.538;2022-07-15T02:25:04;12.50;99.90
23083;DHT22;11709;52.420;10.538;2022-07-15T02:29:06;12.50;99.90
23083;DHT22;11709;52.420;10.538;2022-07-15T02:33:09;12.50;99.90
23083;DHT22;11709;52.420;10.538;2022-07-15T02:37:12;12.40;99.90
23083;DHT22;11709;52.420;10.538;2022-07-15T02:41:14;12.40;99.90
23083;DHT22;11709;52.420;10.538;2022-07-15T02:45:19;12.40;99.90
23083;DHT22;11709;52.420;10.538;2022-07-15T02:49:21;12.30;99.90
23083;DHT22;11709;52.420;10.538;2022-07-15T02:53:24;12.20;99.90
23083;DHT22;11709;52.420;10.538;2022-07-15T02:57:29;12.10;99.90
23083;DHT22;11709;52.420;10.538;2022-07-15T03:01:31;12.00;99.90
23083;DHT22;11709;52.420;10.538;2022-07-15T03:05:34;12.00;99.90
23083;DHT22;11709;52.420;10.538;2022-07-15T03:09:36;12.00;99.90
23083;DHT22;11709;52.420;10.538;2022-07-15T03:13:39;12.00;99.90
23083;DHT22;11709;52.420;10.538;2022-07-15T03:17:41;12.00;99.90
23083;DHT22;11709;52.420;10.538;2022-07-15T03:21:44;12.00;99.90
23083;DHT22;11709;52.420;10.538;2022-07-15T03:25:46;12.00;99.90
23083;DHT22;11709;52.420;10.538;2022-07-15T03:29:49;11.90;99.90
23083;DHT22;11709;52.420;10.538;2022-07-15T03:33:52;12.00;99.90
23083;DHT22;11709;52.420;10.538;2022-07-15T03:37:56;12.00;99.90
23083;DHT22;11709;52.420;10.538;2022-07-15T03:41:59;11.90;99.90
23083;DHT22;11709;52.420;10.538;2022-07-15T03:46:01;12.00;99.90
23083;DHT22;11709;52.420;10.538;2022-07-15T03:50:04;12.00;99.90
23083;DHT22;11709;52.420;10.538;2022-07-15T03:54:07;12.00;99.90
23083;DHT22;11709;52.420;10.538;2022-07-15T03:58:10;12.00;99.90
23083;DHT22;11709;52.420;10.538;2022-07-15T04:02:12;12.00;99.90
23083;DHT22;11709;52.420;10.538;2022-07-15T04:06:15;12.00;99.90
23083;DHT22;11709;52.420;10.538;2022-07-15T04:10:18;12.10;99.90
23083;DHT22;11709;52.420;10.538;2022-07-15T04:14:21;12.10;99.90
23083;DHT22;11709;52.420;10.538;2022-07-15T04:18:23;12.20;99.90
23083;DHT22;11709;52.420;10.538;2022-07-15T04:22:26;12.30;99.90
23083;DHT22;11709;52.420;10.538;2022-07-15T04:26:29;12.40;99.90
23083;DHT22;11709;52.420;10.538;2022-07-15T04:30:31;12.50;99.90
23083;DHT22;11709;52.420;10.538;2022-07-15T04:34:34;12.60;99.90
23083;DHT22;11709;52.420;10.538;2022-07-15T04:38:36;12.60;99.90
23083;DHT22;11709;52.420;10.538;2022-07-15T04:42:39;12.70;99.90
23083;DHT22;11709;52.420;10.538;2022-07-15T04:46:41;12.80;99.90
23083;DHT22;11709;52.420;10.538;2022-07-15T04:50:44;12.90;99.90
23083;DHT22;11709;52.420;10.538;2022-07-15T04:54:52;13.00;99.90
23083;DHT22;11709;52.420;10.538;2022-07-15T04:58:54;13.10;99.90
23083;DHT22;11709;52.420;10.538;2022-07-15T05:02:57;13.20;99.90
23083;DHT22;11709;52.420;10.538;2022-07-15T05:06:59;13.30;99.90
23083;DHT22;11709;52.420;10.538;2022-07-15T05:11:02;13.40;99.90
23083;DHT22;11709;52.420;10.538;2022-07-15T05:15:05;13.50;99.90
23083;DHT22;11709;52.420;10.538;2022-07-15T05:19:08;13.60;99.90
23083;DHT22;11709;52.420;10.538;2022-07-15T05:23:10;13.70;99.90
23083;DHT22;11709;52.420;10.538;2022-07-15T05:27:13;13.80;99.90
23083;DHT22;11709;52.420;10.538;2022-07-15T05:31:15;13.90;99.90
23083;DHT22;11709;52.420;10.538;2022-07-15T05:35:18;14.10;99.90
23083;DHT22;11709;52.420;10.538;2022-07-15T05:39:20;14.20;99.90
23083;DHT22;11709;52.420;10.538;2022-07-15T05:43:23;14.30;99.90
23083;DHT22;11709;52.420;10.538;2022-07-15T05:47:26;14.40;99.90
23083;DHT22;11709;52.420;10.538;2022-07-15T05:51:28;14.50;99.90
23083;DHT22;11709;52.420;10.538;2022-07-15T05:55:31;14.60;99.90
23083;DHT22;11709;52.420;10.538;2022-07-15T05:59:33;14.70;99.90
23083;DHT22;11709;52.420;10.538;2022-07-15T06:03:36;14.70;99.90
23083;DHT22;11709;52.420;10.538;2022-07-15T06:07:38;14.80;99.90
23083;DHT22;11709;52.420;10.538;2022-07-15T06:11:41;14.80;99.90
23083;DHT22;11709;52.420;10.538;2022-07-15T06:15:43;14.90;99.90
23083;DHT22;11709;52.420;10.538;2022-07-15T06:19:46;15.00;99.90
23083;DHT22;11709;52.420;10.538;2022-07-15T06:23:48;15.10;99.90
23083;DHT22;11709;52.420;10.538;2022-07-15T06:27:51;15.20;99.90
23083;DHT22;11709;52.420;10.538;2022-07-15T06:31:53;15.40;99.90
23083;DHT22;11709;52.420;10.538;2022-07-15T06:35:56;15.50;99.90
23083;DHT22;11709;52.420;10.538;2022-07-15T06:39:59;15.60;99.90
23083;DHT22;11709;52.420;10.538;2022-07-15T06:44:01;15.60;99.90
23083;DHT22;11709;52.420;10.538;2022-07-15T06:48:06;15.80;99.90
23083;DHT22;11709;52.420;10.538;2022-07-15T06:52:08;16.00;99.90
23083;DHT22;11709;52.420;10.538;2022-07-15T06:56:11;16.00;99.90
23083;DHT22;11709;52.420;10.538;2022-07-15T07:00:14;16.20;99.90
23083;DHT22;11709;52.420;10.538;2022-07-15T07:04:17;16.30;99.90
23083;DHT22;11709;52.420;10.538;2022-07-15T07:08:20;16.30;99.90
23083;DHT22;11709;52.420;10.538;2022-07-15T07:12:22;16.50;99.90
23083;DHT22;11709;52.420;10.538;2022-07-15T07:16:25;16.50;99.90
23083;DHT22;11709;52.420;10.538;2022-07-15T07:20:28;16.60;99.90
23083;DHT22;11709;52.420;10.538;2022-07-15T07:24:31;16.70;99.90
23083;DHT22;11709;52.420;10.538;2022-07-15T07:28:34;16.80;99.90
23083;DHT22;11709;52.420;10.538;2022-07-15T07:32:36;16.90;99.90
23083;DHT22;11709;52.420;10.538;2022-07-15T07:36:39;16.90;99.90
23083;DHT22;11709;52.420;10.538;2022-07-15T07:40:42;17.00;99.90
23083;DHT22;11709;52.420;10.538;2022-07-15T07:44:44;17.10;99.90
23083;DHT22;11709;52.420;10.538;2022-07-15T07:48:47;17.30;99.90
23083;DHT22;11709;52.420;10.538;2022-07-15T07:52:50;17.20;99.90
23083;DHT22;11709;52.420;10.538;2022-07-15T07:56:56;17.10;99.90
23083;DHT22;11709;52.420;10.538;2022-07-15T08:00:58;16.90;99.90
23083;DHT22;11709;52.420;10.538;2022-07-15T08:05:01;16.90;99.90
23083;DHT22;11709;52.420;10.538;2022-07-15T08:09:03;17.10;99.90
23083;DHT22;11709;52.420;10.538;2022-07-15T08:13:06;17.40;99.90
23083;DHT22;11709;52.420;10.538;2022-07-15T08:17:09;17.40;99.90
23083;DHT22;11709;52.420;10.538;2022-07-15T08:21:11;17.40;99.90
23083;DHT22;11709;52.420;10.538;2022-07-15T08:25:16;17.10;99.90
23083;DHT22;11709;52.420;10.538;2022-07-15T08:29:20;17.00;99.90
23083;DHT22;11709;52.420;10.538;2022-07-15T08:33:22;17.10;99.90
23083;DHT22;11709;52.420;10.538;2022-07-15T08:37:25;17.20;99.90
23083;DHT22;11709;52.420;10.538;2022-07-15T08:41:28;17.20;99.90
23083;DHT22;11709;52.420;10.538;2022-07-15T08:45:30;17.10;99.90
23083;DHT22;11709;52.420;10.538;2022-07-15T08:49:34;17.00;99.90
23083;DHT22;11709;52.420;10.538;2022-07-15T08:53:39;16.90;99.90
23083;DHT22;11709;52.420;10.538;2022-07-15T08:57:46;16.80;99.90
23083;DHT22;11709;52.420;10.538;2022-07-15T09:01:49;16.70;99.90
23083;DHT22;11709;52.420;10.538;2022-07-15T09:05:51;16.80;99.90
23083;DHT22;11709;52.420;10.538;2022-07-15T09:09:54;17.10;99.90
23083;DHT22;11709;52.420;10.538;2022-07-15T09:13:58;17.30;99.90
23083;DHT22;11709;52.420;10.538;2022-07-15T09:18:11;17.70;99.90
23083;DHT22;11709;52.420;10.538;2022-07-15T09:22:13;18.00;99.90
23083;DHT22;11709;52.420;10.538;2022-07-15T09:26:31;18.00;99.90
23083;DHT22;11709;52.420;10.538;2022-07-15T09:30:37;17.90;99.90
23083;DHT22;11709;52.420;10.538;2022-07-15T09:35:07;17.70;99.90
23083;DHT22;11709;52.420;10.538;2022-07-15T09:39:11;17.40;99.90
23083;DHT22;11709;52.420;10.538;2022-07-15T09:43:14;17.10;99.90
23083;DHT22;11709;52.420;10.538;2022-07-15T09:47:18;17.00;99.90
23083;DHT22;11709;52.420;10.538;2022-07-15T09:51:22;17.20;99.90
23083;DHT22;11709;52.420;10.538;2022-07-15T09:55:25;17.40;99.90
23083;DHT22;11709;52.420;10.538;2022-07-15T09:59:28;17.50;99.90
23083;DHT22;11709;52.420;10.538;2022-07-15T10:03:33;17.70;99.90
23083;DHT22;11709;52.420;10.538;2022-07-15T10:07:35;17.90;99.90
23083;DHT22;11709;52.420;10.538;2022-07-15T10:11:45;18.30;99.90
23083;DHT22;11709;52.420;10.538;2022-07-15T10:15:54;18.60;99.90
23083;DHT22;11709;52.420;10.538;2022-07-15T10:20:08;18.70;99.90
23083;DHT22;11709;52.420;10.538;2022-07-15T10:24:29;19.00;99.90
23083;DHT22;11709;52.420;10.538;2022-07-15T10:37:09;19.50;99.90
23083;DHT22;11709;52.420;10.538;2022-07-15T10:41:15;19.70;99.90
23083;DHT22;11709;52.420;10.538;2022-07-15T10:45:19;19.70;99.90
23083;DHT22;11709;52.420;10.538;2022-07-15T10:49:27;19.60;99.90
23083;DHT22;11709;52.420;10.538;2022-07-15T10:53:30;19.50;99.90
23083;DHT22;11709;52.420;10.538;2022-07-15T11:01:49;18.70;99.90
23083;DHT22;11709;52.420;10.538;2022-07-15T11:14:42;18.50;99.90
23083;DHT22;11709;52.420;10.538;2022-07-15T11:18:53;18.70;99.90
23083;DHT22;11709;52.420;10.538;2022-07-15T11:22:54;18.90;99.90
23083;DHT22;11709;52.420;10.538;2022-07-15T11:27:01;18.80;99.90
23083;DHT22;11709;52.420;10.538;2022-07-15T11:31:03;19.00;99.90
23083;DHT22;11709;52.420;10.538;2022-07-15T11:35:06;19.30;99.90
23083;DHT22;11709;52.420;10.538;2022-07-15T11:39:09;19.40;99.90
23083;DHT22;11709;52.420;10.538;2022-07-15T11:43:17;19.40;99.90
23083;DHT22;11709;52.420;10.538;2022-07-15T11:47:49;19.40;99.90
23083;DHT22;11709;52.420;10.538;2022-07-15T11:51:43;19.50;99.90
23083;DHT22;11709;52.420;10.538;2022-07-15T11:55:54;19.80;99.90
23083;DHT22;11709;52.420;10.538;2022-07-15T11:59:58;20.10;99.90
23083;DHT22;11709;52.420;10.538;2022-07-15T12:04:00;20.60;99.90
23083;DHT22;11709;52.420;10.538;2022-07-15T12:08:03;21.00;99.90
23083;DHT22;11709;52.420;10.538;2022-07-15T12:12:06;21.00;99.90
23083;DHT22;11709;52.420;10.538;2022-07-15T12:16:09;20.80;99.90
23083;DHT22;11709;52.420;10.538;2022-07-15T12:20:12;20.50;99.90
23083;DHT22;11709;52.420;10.538;2022-07-15T12:24:19;20.40;99.90
23083;DHT22;11709;52.420;10.538;2022-07-15T12:28:32;21.20;99.90
23083;DHT22;11709;52.420;10.538;2022-07-15T12:32:34;22.20;99.90
23083;DHT22;11709;52.420;10.538;2022-07-15T12:36:37;23.10;99.90
23083;DHT22;11709;52.420;10.538;2022-07-15T12:40:39;23.50;99.90
23083;DHT22;11709;52.420;10.538;2022-07-15T12:44:42;23.70;99.90
23083;DHT22;11709;52.420;10.538;2022-07-15T12:48:48;23.80;99.90
23083;DHT22;11709;52.420;10.538;2022-07-15T12:52:53;24.00;99.90
23083;DHT22;11709;52.420;10.538;2022-07-15T12:56:56;24.00;99.90
23083;DHT22;11709;52.420;10.538;2022-07-15T13:01:14;23.50;99.90
23083;DHT22;11709;52.420;10.538;2022-07-15T13:05:13;23.20;99.90
23083;DHT22;11709;52.420;10.538;2022-07-15T13:09:16;22.30;99.90
23083;DHT22;11709;52.420;10.538;2022-07-15T13:13:20;22.00;99.90
23083;DHT22;11709;52.420;10.538;2022-07-15T13:17:23;21.70;99.90
23083;DHT22;11709;52.420;10.538;2022-07-15T13:21:25;21.60;99.90
23083;DHT22;11709;52.420;10.538;2022-07-15T13:25:29;21.60;99.90
23083;DHT22;11709;52.420;10.538;2022-07-15T13:29:32;21.30;99.90
23083;DHT22;11709;52.420;10.538;2022-07-15T13:33:34;21.20;99.90
23083;DHT22;11709;52.420;10.538;2022-07-15T13:37:37;21.00;99.90
23083;DHT22;11709;52.420;10.538;2022-07-15T13:41:40;20.50;99.90
23083;DHT22;11709;52.420;10.538;2022-07-15T13:45:42;20.40;99.90
23083;DHT22;11709;52.420;10.538;2022-07-15T13:49:45;20.20;99.90
23083;DHT22;11709;52.420;10.538;2022-07-15T13:54:05;19.80;99.90
23083;DHT22;11709;52.420;10.538;2022-07-15T13:58:08;19.80;99.90
23083;DHT22;11709;52.420;10.538;2022-07-15T14:02:13;19.40;99.90
23083;DHT22;11709;52.420;10.538;2022-07-15T14:06:15;19.30;99.90
23083;DHT22;11709;52.420;10.538;2022-07-15T14:10:18;19.00;99.90
23083;DHT22;11709;52.420;10.538;2022-07-15T14:14:21;18.90;99.90
23083;DHT22;11709;52.420;10.538;2022-07-15T14:18:23;18.90;99.90
23083;DHT22;11709;52.420;10.538;2022-07-15T14:22:27;19.00;99.90
23083;DHT22;11709;52.420;10.538;2022-07-15T14:26:32;19.10;99.90
23083;DHT22;11709;52.420;10.538;2022-07-15T14:30:34;19.30;99.90
23083;DHT22;11709;52.420;10.538;2022-07-15T14:34:37;19.40;99.90
23083;DHT22;11709;52.420;10.538;2022-07-15T14:38:40;19.60;99.90
23083;DHT22;11709;52.420;10.538;2022-07-15T14:42:42;19.70;99.90
23083;DHT22;11709;52.420;10.538;2022-07-15T14:46:45;19.70;99.90
23083;DHT22;11709;52.420;10.538;2022-07-15T14:50:47;19.80;99.90
23083;DHT22;11709;52.420;10.538;2022-07-15T14:54:50;19.90;99.90
23083;DHT22;11709;52.420;10.538;2022-07-15T14:58:52;19.80;99.90
23083;DHT22;11709;52.420;10.538;2022-07-15T15:02:55;19.80;99.90
23083;DHT22;11709;52.420;10.538;2022-07-15T15:06:57;19.60;99.90
23083;DHT22;11709;52.420;10.538;2022-07-15T15:11:00;19.60;99.90
23083;DHT22;11709;52.420;10.538;2022-07-15T15:15:03;19.50;99.90
23083;DHT22;11709;52.420;10.538;2022-07-15T15:19:05;19.60;99.90
23083;DHT22;11709;52.420;10.538;2022-07-15T15:23:08;19.60;99.90
23083;DHT22;11709;52.420;10.538;2022-07-15T15:27:10;19.50;99.90
23083;DHT22;11709;52.420;10.538;2022-07-15T15:31:13;19.50;99.90
23083;DHT22;11709;52.420;10.538;2022-07-15T15:35:15;19.70;99.90
23083;DHT22;11709;52.420;10.538;2022-07-15T15:39:18;19.80;99.90
23083;DHT22;11709;52.420;10.538;2022-07-15T15:43:21;19.70;99.90
23083;DHT22;11709;52.420;10.538;2022-07-15T15:47:23;19.70;99.90
23083;DHT22;11709;52.420;10.538;2022-07-15T15:51:26;19.60;99.90
23083;DHT22;11709;52.420;10.538;2022-07-15T15:55:28;19.90;99.90
23083;DHT22;11709;52.420;10.538;2022-07-15T15:59:31;20.20;99.90
23083;DHT22;11709;52.420;10.538;2022-07-15T16:03:34;20.30;99.90
23083;DHT22;11709;52.420;10.538;2022-07-15T16:07:36;20.20;99.90
23083;DHT22;11709;52.420;10.538;2022-07-15T16:11:39;20.00;99.90
23083;DHT22;11709;52.420;10.538;2022-07-15T16:15:41;20.00;99.90
23083;DHT22;11709;52.420;10.538;2022-07-15T16:19:44;20.10;99.90
23083;DHT22;11709;52.420;10.538;2022-07-15T16:23:46;20.00;99.90
23083;DHT22;11709;52.420;10.538;2022-07-15T16:27:49;19.80;99.90
23083;DHT22;11709;52.420;10.538;2022-07-15T16:31:51;19.80;99.90
23083;DHT22;11709;52.420;10.538;2022-07-15T16:35:54;19.30;99.90
23083;DHT22;11709;52.420;10.538;2022-07-15T16:39:57;19.00;99.90
23083;DHT22;11709;52.420;10.538;2022-07-15T16:44:00;18.80;99.90
23083;DHT22;11709;52.420;10.538;2022-07-15T16:48:02;18.60;99.90
23083;DHT22;11709;52.420;10.538;2022-07-15T16:52:06;18.30;99.90
23083;DHT22;11709;52.420;10.538;2022-07-15T16:56:09;18.20;99.90
23083;DHT22;11709;52.420;10.538;2022-07-15T17:00:13;18.20;99.90
23083;DHT22;11709;52.420;10.538;2022-07-15T17:04:16;18.20;99.90
23083;DHT22;11709;52.420;10.538;2022-07-15T17:08:19;18.10;99.90
23083;DHT22;11709;52.420;10.538;2022-07-15T17:12:22;18.00;99.90
23083;DHT22;11709;52.420;10.538;2022-07-15T17:16:24;18.00;99.90
23083;DHT22;11709;52.420;10.538;2022-07-15T17:20:27;18.00;99.90
23083;DHT22;11709;52.420;10.538;2022-07-15T17:24:30;17.80;99.90
23083;DHT22;11709;52.420;10.538;2022-07-15T17:28:32;17.80;99.90
23083;DHT22;11709;52.420;10.538;2022-07-15T17:32:35;17.90;99.90
23083;DHT22;11709;52.420;10.538;2022-07-15T17:36:37;17.70;99.90
23083;DHT22;11709;52.420;10.538;2022-07-15T17:40:40;17.60;99.90
23083;DHT22;11709;52.420;10.538;2022-07-15T17:44:43;17.60;99.90
23083;DHT22;11709;52.420;10.538;2022-07-15T17:48:45;17.70;99.90
23083;DHT22;11709;52.420;10.538;2022-07-15T17:52:48;17.60;99.90
23083;DHT22;11709;52.420;10.538;2022-07-15T17:56:50;17.60;99.90
23083;DHT22;11709;52.420;10.538;2022-07-15T18:00:53;17.70;99.90
23083;DHT22;11709;52.420;10.538;2022-07-15T18:04:55;17.60;99.90
23083;DHT22;11709;52.420;10.538;2022-07-15T18:08:58;17.60;99.90
23083;DHT22;11709;52.420;10.538;2022-07-15T18:13:01;17.60;99.90
23083;DHT22;11709;52.420;10.538;2022-07-15T18:17:03;17.70;99.90
23083;DHT22;11709;52.420;10.538;2022-07-15T18:21:06;17.60;99.90
23083;DHT22;11709;52.420;10.538;2022-07-15T18:25:09;17.60;99.90
23083;DHT22;11709;52.420;10.538;2022-07-15T18:29:11;17.60;99.90
23083;DHT22;11709;52.420;10.538;2022-07-15T18:33:14;17.50;99.90
23083;DHT22;11709;52.420;10.538;2022-07-15T18:37:16;17.50;99.90
23083;DHT22;11709;52.420;10.538;2022-07-15T18:41:19;17.40;99.90
23083;DHT22;11709;52.420;10.538;2022-07-15T18:45:21;17.40;99.90
23083;DHT22;11709;52.420;10.538;2022-07-15T18:49:24;17.40;99.90
23083;DHT22;11709;52.420;10.538;2022-07-15T18:53:26;17.30;99.90
23083;DHT22;11709;52.420;10.538;2022-07-15T18:57:29;17.30;99.90
23083;DHT22;11709;52.420;10.538;2022-07-15T19:01:31;17.30;99.90
23083;DHT22;11709;52.420;10.538;2022-07-15T19:05:34;17.30;99.90
23083;DHT22;11709;52.420;10.538;2022-07-15T19:09:37;17.20;99.90
23083;DHT22;11709;52.420;10.538;2022-07-15T19:13:39;17.20;99.90
23083;DHT22;11709;52.420;10.538;2022-07-15T19:17:42;17.20;99.90
23083;DHT22;11709;52.420;10.538;2022-07-15T19:21:47;17.20;99.90
23083;DHT22;11709;52.420;10.538;2022-07-15T19:25:49;17.10;99.90
23083;DHT22;11709;52.420;10.538;2022-07-15T19:29:52;16.90;99.90
23083;DHT22;11709;52.420;10.538;2022-07-15T19:33:54;16.80;99.90
23083;DHT22;11709;52.420;10.538;2022-07-15T19:37:57;16.80;99.90
23083;DHT22;11709;52.420;10.538;2022-07-15T19:42:00;16.80;99.90
23083;DHT22;11709;52.420;10.538;2022-07-15T19:46:03;16.70;99.90
23083;DHT22;11709;52.420;10.538;2022-07-15T19:50:06;16.70;99.90
23083;DHT22;11709;52.420;10.538;2022-07-15T19:54:08;16.70;99.90
23083;DHT22;11709;52.420;10.538;2022-07-15T19:58:11;16.70;99.90
23083;DHT22;11709;52.420;10.538;2022-07-15T20:02:14;16.70;99.90
23083;DHT22;11709;52.420;10.538;2022-07-15T20:06:16;16.70;99.90
23083;DHT22;11709;52.420;10.538;2022-07-15T20:10:20;16.70;99.90
23083;DHT22;11709;52.420;10.538;2022-07-15T20:14:23;16.60;99.90
23083;DHT22;11709;52.420;10.538;2022-07-15T20:18:25;16.60;99.90
23083;DHT22;11709;52.420;10.538;2022-07-15T20:22:28;16.60;99.90
23083;DHT22;11709;52.420;10.538;2022-07-15T20:26:30;16.60;99.90
23083;DHT22;11709;52.420;10.538;2022-07-15T20:30:33;16.60;99.90
23083;DHT22;11709;52.420;10.538;2022-07-15T20:34:35;16.60;99.90
23083;DHT22;11709;52.420;10.538;2022-07-15T20:38:38;16.60;99.90
23083;DHT22;11709;52.420;10.538;2022-07-15T20:42:41;16.60;99.90
23083;DHT22;11709;52.420;10.538;2022-07-15T20:46:43;16.60;99.90
23083;DHT22;11709;52.420;10.538;2022-07-15T20:50:46;16.60;99.90
23083;DHT22;11709;52.420;10.538;2022-07-15T20:54:49;16.50;99.90
23083;DHT22;11709;52.420;10.538;2022-07-15T20:58:51;16.50;99.90
23083;DHT22;11709;52.420;10.538;2022-07-15T21:02:54;16.50;99.90
23083;DHT22;11709;52.420;10.538;2022-07-15T21:06:56;16.40;99.90
23083;DHT22;11709;52.420;10.538;2022-07-15T21:10:59;16.40;99.90
23083;DHT22;11709;52.420;10.538;2022-07-15T21:15:02;16.40;99.90
23083;DHT22;11709;52.420;10.538;2022-07-15T21:19:05;16.40;99.90
23083;DHT22;11709;52.420;10.538;2022-07-15T21:23:08;16.40;99.90
23083;DHT22;11709;52.420;10.538;2022-07-15T21:27:10;16.30;99.90
23083;DHT22;11709;52.420;10.538;2022-07-15T21:31:14;16.30;99.90
23083;DHT22;11709;52.420;10.538;2022-07-15T21:35:17;16.30;99.90
23083;DHT22;11709;52.420;10.538;2022-07-15T21:39:19;16.30;99.90
23083;DHT22;11709;52.420;10.538;2022-07-15T21:43:22;16.20;99.90
23083;DHT22;11709;52.420;10.538;2022-07-15T21:47:24;16.10;99.90
23083;DHT22;11709;52.420;10.538;2022-07-15T21:51:27;16.10;99.90
23083;DHT22;11709;52.420;10.538;2022-07-15T21:55:30;16.00;99.90
23083;DHT22;11709;52.420;10.538;2022-07-15T21:59:32;16.00;99.90
23083;DHT22;11709;52.420;10.538;2022-07-15T22:03:35;16.10;99.90
23083;DHT22;11709;52.420;10.538;2022-07-15T22:07:38;16.00;99.90
23083;DHT22;11709;52.420;10.538;2022-07-15T22:11:40;16.00;99.90
23083;DHT22;11709;52.420;10.538;2022-07-15T22:15:43;16.00;99.90
23083;DHT22;11709;52.420;10.538;2022-07-15T22:19:46;15.90;99.90
23083;DHT22;11709;52.420;10.538;2022-07-15T22:23:48;15.90;99.90
23083;DHT22;11709;52.420;10.538;2022-07-15T22:27:51;15.90;99.90
23083;DHT22;11709;52.420;10.538;2022-07-15T22:31:53;15.90;99.90
23083;DHT22;11709;52.420;10.538;2022-07-15T22:36:13;15.90;99.90
23083;DHT22;11709;52.420;10.538;2022-07-15T22:40:17;15.90;99.90
23083;DHT22;11709;52.420;10.538;2022-07-15T22:44:19;15.90;99.90
23083;DHT22;11709;52.420;10.538;2022-07-15T22:48:22;15.90;99.90
23083;DHT22;11709;52.420;10.538;2022-07-15T22:52:24;15.90;99.90
23083;DHT22;11709;52.420;10.538;2022-07-15T22:56:27;15.80;99.90
23083;DHT22;11709;52.420;10.538;2022-07-15T23:00:30;15.80;99.90
23083;DHT22;11709;52.420;10.538;2022-07-15T23:04:32;15.80;99.90
23083;DHT22;11709;52.420;10.538;2022-07-15T23:08:36;15.80;99.90
23083;DHT22;11709;52.420;10.538;2022-07-15T23:12:39;15.80;99.90
23083;DHT22;11709;52.420;10.538;2022-07-15T23:16:41;15.80;99.90
23083;DHT22;11709;52.420;10.538;2022-07-15T23:20:44;15.70;99.90
23083;DHT22;11709;52.420;10.538;2022-07-15T23:24:47;15.70;99.90
23083;DHT22;11709;52.420;10.538;2022-07-15T23:28:50;15.70;99.90
23083;DHT22;11709;52.420;10.538;2022-07-15T23:32:52;15.70;99.90
23083;DHT22;11709;52.420;10.538;2022-07-15T23:36:55;15.60;99.90
23083;DHT22;11709;52.420;10.538;2022-07-15T23:40:57;15.60;99.90
23083;DHT22;11709;52.420;10.538;2022-07-15T23:45:00;15.60;99.90
23083;DHT22;11709;52.420;10.538;2022-07-15T23:49:03;15.60;99.90
23083;DHT22;11709;52.420;10.538;2022-07-15T23:53:05;15.60;99.90
23083;DHT22;11709;52.420;10.538;2022-07-15T23:57:08;15.60;99.90
